sensor_id;sensor_type;location;lat;lon;timestamp;pressure;altitude;pressure_sealevel;temperature
73734;BMP280;62039;50.000;9.064;2023-07-29T00:01:41;99748.38;;;19.17
73734;BMP280;62039;50.000;9.064;2023-07-29T00:04:08;99743.06;;;19.17
73734;BMP280;62039;50.000;9.064;2023-07-29T00:06:35;99741.25;;;19.18
73734;BMP280;62039;50.000;9.064;2023-07-29T00:09:03;99741.47;;;19.16
73734;BMP280;62039;50.000;9.064;2023-07-29T00:11:33;99745.13;;;19.15
73734;BMP280;62039;50.000;9.064;2023-07-29T00:14:00;99738.22;;;19.14
73734;BMP280;62039;50.000;9.064;2023-07-29T00:16:27;99742.75;;;19.14
73734;BMP280;62039;50.000;9.064;2023-07-29T00:18:54;99740.88;;;19.14
73734;BMP280;62039;50.000;9.064;2023-07-29T00:21:21;99730.53;;;19.13
73734;BMP280;62039;50.000;9.064;2023-07-29T00:23:48;99731.78;;;19.10
73734;BMP280;62039;50.000;9.064;2023-07-29T00:26:15;99735.47;;;19.09
73734;BMP280;62039;50.000;9.064;2023-07-29T00:28:44;99724.09;;;19.09
73734;BMP280;62039;50.000;9.064;2023-07-29T00:31:11;99729.03;;;19.05
73734;BMP280;62039;50.000;9.064;2023-07-29T00:33:38;99732.72;;;19.04
73734;BMP280;62039;50.000;9.064;2023-07-29T00:36:05;99719.94;;;19.01
73734;BMP280;62039;50.000;9.064;2023-07-29T00:38:32;99714.91;;;19.00
73734;BMP280;62039;50.000;9.064;2023-07-29T00:41:00;99712.47;;;18.98
73734;BMP280;62039;50.000;9.064;2023-07-29T00:43:28;99713.72;;;18.96
73734;BMP280;62039;50.000;9.064;2023-07-29T00:45:57;99722.47;;;18.96
73734;BMP280;62039;50.000;9.064;2023-07-29T00:48:25;99712.91;;;18.95
73734;BMP280;62039;50.000;9.064;2023-07-29T00:50:52;99713.94;;;18.94
73734;BMP280;62039;50.000;9.064;2023-07-29T00:53:19;99711.56;;;18.93
73734;BMP280;62039;50.000;9.064;2023-07-29T00:55:46;99706.50;;;18.91
73734;BMP280;62039;50.000;9.064;2023-07-29T00:58:13;99699.56;;;18.90
73734;BMP280;62039;50.000;9.064;2023-07-29T01:00:41;99700.59;;;18.89
73734;BMP280;62039;50.000;9.064;2023-07-29T01:03:11;99698.97;;;18.88
73734;BMP280;62039;50.000;9.064;2023-07-29T01:05:46;99693.13;;;18.86
73734;BMP280;62039;50.000;9.064;2023-07-29T01:08:21;99685.41;;;18.85
73734;BMP280;62039;50.000;9.064;2023-07-29T01:10:55;99686.66;;;18.82
73734;BMP280;62039;50.000;9.064;2023-07-29T01:13:30;99699.31;;;18.80
73734;BMP280;62039;50.000;9.064;2023-07-29T01:16:00;99690.22;;;18.76
73734;BMP280;62039;50.000;9.064;2023-07-29T01:18:32;99681.47;;;18.75
73734;BMP280;62039;50.000;9.064;2023-07-29T01:21:04;99685.97;;;18.75
73734;BMP280;62039;50.000;9.064;2023-07-29T01:23:34;99679.06;;;18.74
73734;BMP280;62039;50.000;9.064;2023-07-29T01:26:02;99683.78;;;18.72
73734;BMP280;62039;50.000;9.064;2023-07-29T01:28:29;99684.34;;;18.74
73734;BMP280;62039;50.000;9.064;2023-07-29T01:31:16;99680.66;;;18.75
73734;BMP280;62039;50.000;9.064;2023-07-29T01:33:51;99677.00;;;18.76
73734;BMP280;62039;50.000;9.064;2023-07-29T01:36:21;99675.16;;;18.76
73734;BMP280;62039;50.000;9.064;2023-07-29T01:38:52;99683.91;;;18.77
73734;BMP280;62039;50.000;9.064;2023-07-29T01:41:20;99687.56;;;18.76
73734;BMP280;62039;50.000;9.064;2023-07-29T01:43:48;99682.28;;;18.76
73734;BMP280;62039;50.000;9.064;2023-07-29T01:46:15;99680.22;;;18.78
73734;BMP280;62039;50.000;9.064;2023-07-29T01:48:43;99679.41;;;18.77
73734;BMP280;62039;50.000;9.064;2023-07-29T01:51:11;99668.03;;;18.77
73734;BMP280;62039;50.000;9.064;2023-07-29T01:53:38;99670.91;;;18.75
73734;BMP280;62039;50.000;9.064;2023-07-29T01:56:08;99662.16;;;18.75
73734;BMP280;62039;50.000;9.064;2023-07-29T01:58:35;99656.06;;;18.74
73734;BMP280;62039;50.000;9.064;2023-07-29T02:01:02;99657.13;;;18.73
73734;BMP280;62039;50.000;9.064;2023-07-29T02:03:29;99660.53;;;18.74
73734;BMP280;62039;50.000;9.064;2023-07-29T02:05:56;99659.50;;;18.75
73734;BMP280;62039;50.000;9.064;2023-07-29T02:08:23;99653.19;;;18.76
73734;BMP280;62039;50.000;9.064;2023-07-29T02:10:50;99651.13;;;18.78
73734;BMP280;62039;50.000;9.064;2023-07-29T02:13:19;99644.81;;;18.79
73734;BMP280;62039;50.000;9.064;2023-07-29T02:15:46;99642.16;;;18.79
73734;BMP280;62039;50.000;9.064;2023-07-29T02:18:13;99625.25;;;18.80
73734;BMP280;62039;50.000;9.064;2023-07-29T02:20:40;99625.25;;;18.80
73734;BMP280;62039;50.000;9.064;2023-07-29T02:23:07;99637.66;;;18.79
73734;BMP280;62039;50.000;9.064;2023-07-29T02:25:35;99638.47;;;18.80
73734;BMP280;62039;50.000;9.064;2023-07-29T02:28:02;99638.47;;;18.80
73734;BMP280;62039;50.000;9.064;2023-07-29T02:30:32;99642.72;;;18.81
73734;BMP280;62039;50.000;9.064;2023-07-29T02:32:59;99638.22;;;18.81
73734;BMP280;62039;50.000;9.064;2023-07-29T02:35:26;99638.00;;;18.83
73734;BMP280;62039;50.000;9.064;2023-07-29T02:37:53;99633.75;;;18.82
73734;BMP280;62039;50.000;9.064;2023-07-29T02:40:20;99635.34;;;18.83
73734;BMP280;62039;50.000;9.064;2023-07-29T02:42:47;99619.47;;;18.83
73734;BMP280;62039;50.000;9.064;2023-07-29T02:45:14;99632.72;;;18.83
73734;BMP280;62039;50.000;9.064;2023-07-29T02:47:44;99629.25;;;18.82
73734;BMP280;62039;50.000;9.064;2023-07-29T02:50:11;99631.09;;;18.82
73734;BMP280;62039;50.000;9.064;2023-07-29T02:52:38;99620.75;;;18.80
73734;BMP280;62039;50.000;9.064;2023-07-29T02:55:06;99625.25;;;18.80
73734;BMP280;62039;50.000;9.064;2023-07-29T02:57:33;99613.88;;;18.79
73734;BMP280;62039;50.000;9.064;2023-07-29T03:00:00;99623.63;;;18.79
73734;BMP280;62039;50.000;9.064;2023-07-29T03:02:27;99616.72;;;18.78
73734;BMP280;62039;50.000;9.064;2023-07-29T03:04:57;99616.97;;;18.76
73734;BMP280;62039;50.000;9.064;2023-07-29T03:07:25;99607.63;;;18.74
73734;BMP280;62039;50.000;9.064;2023-07-29T03:09:52;99601.78;;;18.72
73734;BMP280;62039;50.000;9.064;2023-07-29T03:12:19;99604.66;;;18.70
73734;BMP280;62039;50.000;9.064;2023-07-29T03:14:47;99612.81;;;18.69
73734;BMP280;62039;50.000;9.064;2023-07-29T03:17:14;99620.19;;;18.67
73734;BMP280;62039;50.000;9.064;2023-07-29T03:19:41;99616.50;;;18.68
73734;BMP280;62039;50.000;9.064;2023-07-29T03:22:11;99614.44;;;18.70
73734;BMP280;62039;50.000;9.064;2023-07-29T03:24:38;99614.91;;;18.67
73734;BMP280;62039;50.000;9.064;2023-07-29T03:27:05;99618.59;;;18.66
73734;BMP280;62039;50.000;9.064;2023-07-29T03:29:32;99616.38;;;18.63
73734;BMP280;62039;50.000;9.064;2023-07-29T03:31:59;99610.50;;;18.61
73734;BMP280;62039;50.000;9.064;2023-07-29T03:34:26;99612.34;;;18.60
73734;BMP280;62039;50.000;9.064;2023-07-29T03:36:53;99605.22;;;18.61
73734;BMP280;62039;50.000;9.064;2023-07-29T03:39:22;99602.84;;;18.59
73734;BMP280;62039;50.000;9.064;2023-07-29T03:41:49;99594.91;;;18.59
73734;BMP280;62039;50.000;9.064;2023-07-29T03:44:16;99585.91;;;18.60
73734;BMP280;62039;50.000;9.064;2023-07-29T03:46:43;99579.84;;;18.60
73734;BMP280;62039;50.000;9.064;2023-07-29T03:49:10;99573.75;;;18.59
73734;BMP280;62039;50.000;9.064;2023-07-29T03:51:37;99577.19;;;18.60
73734;BMP280;62039;50.000;9.064;2023-07-29T03:54:04;99573.16;;;18.57
73734;BMP280;62039;50.000;9.064;2023-07-29T03:56:34;99571.53;;;18.56
73734;BMP280;62039;50.000;9.064;2023-07-29T03:59:05;99576.25;;;18.54
73734;BMP280;62039;50.000;9.064;2023-07-29T04:01:32;99571.66;;;18.50
73734;BMP280;62039;50.000;9.064;2023-07-29T04:03:59;99583.50;;;18.47
73734;BMP280;62039;50.000;9.064;2023-07-29T04:06:26;99580.50;;;18.43
73734;BMP280;62039;50.000;9.064;2023-07-29T04:08:53;99588.44;;;18.43
73734;BMP280;62039;50.000;9.064;2023-07-29T04:11:20;99586.81;;;18.42
73734;BMP280;62039;50.000;9.064;2023-07-29T04:13:50;99582.56;;;18.41
73734;BMP280;62039;50.000;9.064;2023-07-29T04:16:17;99585.69;;;18.38
73734;BMP280;62039;50.000;9.064;2023-07-29T04:18:44;99575.94;;;18.39
73734;BMP280;62039;50.000;9.064;2023-07-29T04:21:11;99581.22;;;18.39
73734;BMP280;62039;50.000;9.064;2023-07-29T04:23:38;99578.78;;;18.37
73734;BMP280;62039;50.000;9.064;2023-07-29T04:26:05;99578.78;;;18.37
73734;BMP280;62039;50.000;9.064;2023-07-29T04:28:31;99576.38;;;18.36
73734;BMP280;62039;50.000;9.064;2023-07-29T04:31:01;99578.78;;;18.37
73734;BMP280;62039;50.000;9.064;2023-07-29T04:33:29;99573.50;;;18.37
73734;BMP280;62039;50.000;9.064;2023-07-29T04:35:57;99573.50;;;18.37
73734;BMP280;62039;50.000;9.064;2023-07-29T04:38:32;99583.03;;;18.38
73734;BMP280;62039;50.000;9.064;2023-07-29T04:40:59;99582.47;;;18.36
73734;BMP280;62039;50.000;9.064;2023-07-29T04:43:27;99581.44;;;18.37
73734;BMP280;62039;50.000;9.064;2023-07-29T04:45:54;99577.19;;;18.36
73734;BMP280;62039;50.000;9.064;2023-07-29T04:48:23;99569.81;;;18.38
73734;BMP280;62039;50.000;9.064;2023-07-29T04:50:50;99571.44;;;18.39
73734;BMP280;62039;50.000;9.064;2023-07-29T04:53:17;99572.25;;;18.40
73734;BMP280;62039;50.000;9.064;2023-07-29T04:55:45;99576.25;;;18.42
73734;BMP280;62039;50.000;9.064;2023-07-29T04:58:11;99574.63;;;18.41
73734;BMP280;62039;50.000;9.064;2023-07-29T05:00:38;99573.59;;;18.42
73734;BMP280;62039;50.000;9.064;2023-07-29T05:03:05;99567.28;;;18.43
73734;BMP280;62039;50.000;9.064;2023-07-29T05:05:35;99566.84;;;18.47
73734;BMP280;62039;50.000;9.064;2023-07-29T05:08:02;99561.56;;;18.47
73734;BMP280;62039;50.000;9.064;2023-07-29T05:10:29;99555.22;;;18.48
73734;BMP280;62039;50.000;9.064;2023-07-29T05:12:56;99546.84;;;18.51
73734;BMP280;62039;50.000;9.064;2023-07-29T05:15:23;99565.94;;;18.53
73734;BMP280;62039;50.000;9.064;2023-07-29T05:17:50;99566.72;;;18.53
73734;BMP280;62039;50.000;9.064;2023-07-29T05:20:17;99571.78;;;18.55
73734;BMP280;62039;50.000;9.064;2023-07-29T05:22:47;99571.53;;;18.56
73734;BMP280;62039;50.000;9.064;2023-07-29T05:25:14;99578.66;;;18.56
73734;BMP280;62039;50.000;9.064;2023-07-29T05:27:40;99584.53;;;18.58
73734;BMP280;62039;50.000;9.064;2023-07-29T05:30:08;99569.47;;;18.58
73734;BMP280;62039;50.000;9.064;2023-07-29T05:32:35;99572.69;;;18.60
73734;BMP280;62039;50.000;9.064;2023-07-29T05:35:02;99577.19;;;18.60
73734;BMP280;62039;50.000;9.064;2023-07-29T05:37:29;99573.47;;;18.61
73734;BMP280;62039;50.000;9.064;2023-07-29T05:39:59;99583.63;;;18.64
73734;BMP280;62039;50.000;9.064;2023-07-29T05:42:26;99584.19;;;18.66
73734;BMP280;62039;50.000;9.064;2023-07-29T05:44:53;99596.94;;;18.69
73734;BMP280;62039;50.000;9.064;2023-07-29T05:47:20;99600.16;;;18.71
73734;BMP280;62039;50.000;9.064;2023-07-29T05:49:46;99607.06;;;18.72
73734;BMP280;62039;50.000;9.064;2023-07-29T05:52:14;99598.13;;;18.73
73734;BMP280;62039;50.000;9.064;2023-07-29T05:54:41;99616.38;;;18.74
73734;BMP280;62039;50.000;9.064;2023-07-29T05:57:12;99614.31;;;18.76
73734;BMP280;62039;50.000;9.064;2023-07-29T05:59:39;99615.13;;;18.77
73734;BMP280;62039;50.000;9.064;2023-07-29T06:02:06;99606.75;;;18.80
73734;BMP280;62039;50.000;9.064;2023-07-29T06:04:33;99601.19;;;18.81
73734;BMP280;62039;50.000;9.064;2023-07-29T06:07:00;99594.63;;;18.84
73734;BMP280;62039;50.000;9.064;2023-07-29T06:09:27;99595.78;;;18.88
73734;BMP280;62039;50.000;9.064;2023-07-29T06:11:54;99599.63;;;18.92
73734;BMP280;62039;50.000;9.064;2023-07-29T06:14:24;99606.28;;;18.95
73734;BMP280;62039;50.000;9.064;2023-07-29T06:16:51;99603.41;;;18.96
73734;BMP280;62039;50.000;9.064;2023-07-29T06:19:19;99611.91;;;18.98
73734;BMP280;62039;50.000;9.064;2023-07-29T06:21:46;99608.22;;;18.99
73734;BMP280;62039;50.000;9.064;2023-07-29T06:24:13;99613.06;;;19.02
73734;BMP280;62039;50.000;9.064;2023-07-29T06:26:40;99613.41;;;19.06
73734;BMP280;62039;50.000;9.064;2023-07-29T06:29:07;99600.72;;;19.08
73734;BMP280;62039;50.000;9.064;2023-07-29T06:31:36;99592.56;;;19.09
73734;BMP280;62039;50.000;9.064;2023-07-29T06:34:03;99592.31;;;19.11
73734;BMP280;62039;50.000;9.064;2023-07-29T06:36:30;99593.47;;;19.15
73734;BMP280;62039;50.000;9.064;2023-07-29T06:38:57;99589.31;;;19.19
73734;BMP280;62039;50.000;9.064;2023-07-29T06:41:24;99594.38;;;19.20
73734;BMP280;62039;50.000;9.064;2023-07-29T06:43:51;99600.22;;;19.23
73734;BMP280;62039;50.000;9.064;2023-07-29T06:46:18;99611.41;;;19.25
73734;BMP280;62039;50.000;9.064;2023-07-29T06:48:48;99604.59;;;19.29
73734;BMP280;62039;50.000;9.064;2023-07-29T06:51:15;99608.84;;;19.30
73734;BMP280;62039;50.000;9.064;2023-07-29T06:53:42;99616.09;;;19.34
73734;BMP280;62039;50.000;9.064;2023-07-29T06:56:09;99601.81;;;19.35
73734;BMP280;62039;50.000;9.064;2023-07-29T06:58:36;99598.13;;;19.36
73734;BMP280;62039;50.000;9.064;2023-07-29T07:01:03;99603.19;;;19.38
73734;BMP280;62039;50.000;9.064;2023-07-29T07:03:30;99605.38;;;19.41
73734;BMP280;62039;50.000;9.064;2023-07-29T07:06:00;99593.50;;;19.43
73734;BMP280;62039;50.000;9.064;2023-07-29T07:08:26;99606.50;;;19.45
73734;BMP280;62039;50.000;9.064;2023-07-29T07:10:53;99606.28;;;19.46
73734;BMP280;62039;50.000;9.064;2023-07-29T07:13:20;99603.38;;;19.48
73734;BMP280;62039;50.000;9.064;2023-07-29T07:15:47;99593.34;;;19.50
73734;BMP280;62039;50.000;9.064;2023-07-29T07:18:14;99594.16;;;19.50
73734;BMP280;62039;50.000;9.064;2023-07-29T07:20:41;99592.94;;;19.53
73734;BMP280;62039;50.000;9.064;2023-07-29T07:23:11;99604.06;;;19.55
73734;BMP280;62039;50.000;9.064;2023-07-29T07:25:38;99615.47;;;19.55
73734;BMP280;62039;50.000;9.064;2023-07-29T07:28:05;99621.34;;;19.57
73734;BMP280;62039;50.000;9.064;2023-07-29T07:30:32;99618.47;;;19.59
73734;BMP280;62039;50.000;9.064;2023-07-29T07:32:59;99617.44;;;19.60
73734;BMP280;62039;50.000;9.064;2023-07-29T07:35:26;99623.84;;;19.64
73734;BMP280;62039;50.000;9.064;2023-07-29T07:37:53;99597.94;;;19.66
73734;BMP280;62039;50.000;9.064;2023-07-29T07:40:22;99587.66;;;19.70
73734;BMP280;62039;50.000;9.064;2023-07-29T07:42:49;99585.00;;;19.70
73734;BMP280;62039;50.000;9.064;2023-07-29T07:45:16;99598.47;;;19.68
73734;BMP280;62039;50.000;9.064;2023-07-29T07:47:43;99616.00;;;19.69
73734;BMP280;62039;50.000;9.064;2023-07-29T07:50:11;99624.75;;;19.70
73734;BMP280;62039;50.000;9.064;2023-07-29T07:52:37;99623.72;;;19.71
73734;BMP280;62039;50.000;9.064;2023-07-29T07:55:05;99616.34;;;19.73
73734;BMP280;62039;50.000;9.064;2023-07-29T07:57:35;99623.00;;;19.75
73734;BMP280;62039;50.000;9.064;2023-07-29T08:00:02;99622.22;;;19.75
73734;BMP280;62039;50.000;9.064;2023-07-29T08:02:29;99633.59;;;19.75
73734;BMP280;62039;50.000;9.064;2023-07-29T08:04:57;99645.78;;;19.76
73734;BMP280;62039;50.000;9.064;2023-07-29T08:07:23;99641.88;;;19.79
73734;BMP280;62039;50.000;9.064;2023-07-29T08:09:50;99634.75;;;19.79
73734;BMP280;62039;50.000;9.064;2023-07-29T08:12:17;99634.75;;;19.79
73734;BMP280;62039;50.000;9.064;2023-07-29T08:14:48;99647.75;;;19.81
73734;BMP280;62039;50.000;9.064;2023-07-29T08:17:16;99646.94;;;19.80
73734;BMP280;62039;50.000;9.064;2023-07-29T08:19:43;99653.88;;;19.81
73734;BMP280;62039;50.000;9.064;2023-07-29T08:22:10;99659.16;;;19.81
73734;BMP280;62039;50.000;9.064;2023-07-29T08:24:37;99658.09;;;19.82
73734;BMP280;62039;50.000;9.064;2023-07-29T08:27:05;99649.34;;;19.82
73734;BMP280;62039;50.000;9.064;2023-07-29T08:29:32;99646.94;;;19.80
73734;BMP280;62039;50.000;9.064;2023-07-29T08:32:02;99658.09;;;19.82
73734;BMP280;62039;50.000;9.064;2023-07-29T08:34:29;99649.34;;;19.82
73734;BMP280;62039;50.000;9.064;2023-07-29T08:36:57;99645.66;;;19.83
73734;BMP280;62039;50.000;9.064;2023-07-29T08:39:24;99643.56;;;19.85
73734;BMP280;62039;50.000;9.064;2023-07-29T08:41:56;99646.00;;;19.86
73734;BMP280;62039;50.000;9.064;2023-07-29T08:44:26;99649.19;;;19.88
73734;BMP280;62039;50.000;9.064;2023-07-29T08:46:53;99644.69;;;19.89
73734;BMP280;62039;50.000;9.064;2023-07-29T08:49:23;99639.16;;;19.90
73734;BMP280;62039;50.000;9.064;2023-07-29T08:51:53;99643.19;;;19.93
73734;BMP280;62039;50.000;9.064;2023-07-29T08:54:20;99643.75;;;19.95
73734;BMP280;62039;50.000;9.064;2023-07-29T08:56:47;99643.28;;;19.98
73734;BMP280;62039;50.000;9.064;2023-07-29T08:59:15;99648.94;;;20.02
73734;BMP280;62039;50.000;9.064;2023-07-29T09:01:43;99653.28;;;20.08
73734;BMP280;62039;50.000;9.064;2023-07-29T09:04:10;99657.03;;;20.12
73734;BMP280;62039;50.000;9.064;2023-07-29T09:06:39;99652.88;;;20.16
73734;BMP280;62039;50.000;9.064;2023-07-29T09:09:07;99647.69;;;20.21
73734;BMP280;62039;50.000;9.064;2023-07-29T09:11:35;99645.13;;;20.26
73734;BMP280;62039;50.000;9.064;2023-07-29T09:14:02;99645.53;;;20.34
73734;BMP280;62039;50.000;9.064;2023-07-29T09:16:29;99646.50;;;20.45
73734;BMP280;62039;50.000;9.064;2023-07-29T09:19:00;99650.09;;;20.56
73734;BMP280;62039;50.000;9.064;2023-07-29T09:21:28;99637.81;;;20.66
73734;BMP280;62039;50.000;9.064;2023-07-29T09:24:02;99640.16;;;20.80
73734;BMP280;62039;50.000;9.064;2023-07-29T09:26:30;99639.22;;;20.91
73734;BMP280;62039;50.000;9.064;2023-07-29T09:28:58;99641.25;;;21.00
73734;BMP280;62039;50.000;9.064;2023-07-29T09:31:28;99634.94;;;21.06
73734;BMP280;62039;50.000;9.064;2023-07-29T09:33:56;99639.78;;;21.09
73734;BMP280;62039;50.000;9.064;2023-07-29T09:36:24;99641.69;;;21.14
73734;BMP280;62039;50.000;9.064;2023-07-29T09:38:52;99642.78;;;21.18
73734;BMP280;62039;50.000;9.064;2023-07-29T09:41:22;99646.06;;;21.25
73734;BMP280;62039;50.000;9.064;2023-07-29T09:43:56;99642.41;;;21.31
73734;BMP280;62039;50.000;9.064;2023-07-29T09:46:23;99659.50;;;21.35
73734;BMP280;62039;50.000;9.064;2023-07-29T09:48:53;99656.34;;;21.38
73734;BMP280;62039;50.000;9.064;2023-07-29T09:51:20;99650.78;;;21.40
73734;BMP280;62039;50.000;9.064;2023-07-29T09:53:48;99654.81;;;21.42
73734;BMP280;62039;50.000;9.064;2023-07-29T09:56:15;99662.84;;;21.47
73734;BMP280;62039;50.000;9.064;2023-07-29T09:58:45;99647.53;;;21.54
73734;BMP280;62039;50.000;9.064;2023-07-29T10:01:13;99649.75;;;21.63
73734;BMP280;62039;50.000;9.064;2023-07-29T10:03:40;99652.50;;;21.73
73734;BMP280;62039;50.000;9.064;2023-07-29T10:06:07;99648.34;;;21.82
73734;BMP280;62039;50.000;9.064;2023-07-29T10:08:34;99642.81;;;21.88
73734;BMP280;62039;50.000;9.064;2023-07-29T10:11:01;99642.41;;;21.97
73734;BMP280;62039;50.000;9.064;2023-07-29T10:13:28;99635.81;;;22.04
73734;BMP280;62039;50.000;9.064;2023-07-29T10:15:58;99632.69;;;22.12
73734;BMP280;62039;50.000;9.064;2023-07-29T10:18:26;99631.75;;;22.23
73734;BMP280;62039;50.000;9.064;2023-07-29T10:20:54;99617.97;;;22.31
73734;BMP280;62039;50.000;9.064;2023-07-29T10:23:25;99628.69;;;22.42
73734;BMP280;62039;50.000;9.064;2023-07-29T10:25:55;99617.31;;;22.51
73734;BMP280;62039;50.000;9.064;2023-07-29T10:28:26;99621.38;;;22.59
73734;BMP280;62039;50.000;9.064;2023-07-29T10:30:53;99616.13;;;22.69
73734;BMP280;62039;50.000;9.064;2023-07-29T10:33:23;99614.88;;;22.82
73734;BMP280;62039;50.000;9.064;2023-07-29T10:35:52;99598.44;;;22.95
73734;BMP280;62039;50.000;9.064;2023-07-29T10:38:21;99596.38;;;23.07
73734;BMP280;62039;50.000;9.064;2023-07-29T10:40:51;99591.91;;;23.18
73734;BMP280;62039;50.000;9.064;2023-07-29T10:43:23;99595.41;;;23.28
73734;BMP280;62039;50.000;9.064;2023-07-29T10:45:50;99591.44;;;23.41
73734;BMP280;62039;50.000;9.064;2023-07-29T10:48:52;99584.00;;;23.53
73734;BMP280;62039;50.000;9.064;2023-07-29T10:51:27;99591.25;;;23.68
73734;BMP280;62039;50.000;9.064;2023-07-29T10:53:55;99589.94;;;23.80
73734;BMP280;62039;50.000;9.064;2023-07-29T10:56:30;99586.75;;;23.94
73734;BMP280;62039;50.000;9.064;2023-07-29T10:58:58;99585.16;;;24.08
73734;BMP280;62039;50.000;9.064;2023-07-29T11:01:29;99579.31;;;24.21
73734;BMP280;62039;50.000;9.064;2023-07-29T11:04:27;99588.38;;;24.30
73734;BMP280;62039;50.000;9.064;2023-07-29T11:07:19;99588.09;;;24.37
73734;BMP280;62039;50.000;9.064;2023-07-29T11:09:53;99576.09;;;24.44
73734;BMP280;62039;50.000;9.064;2023-07-29T11:12:39;99565.94;;;24.51
73734;BMP280;62039;50.000;9.064;2023-07-29T11:15:13;99567.50;;;24.57
73734;BMP280;62039;50.000;9.064;2023-07-29T11:17:42;99564.03;;;24.62
73734;BMP280;62039;50.000;9.064;2023-07-29T11:20:13;99566.16;;;24.65
73734;BMP280;62039;50.000;9.064;2023-07-29T11:22:44;99561.34;;;24.67
73734;BMP280;62039;50.000;9.064;2023-07-29T11:25:12;99560.56;;;24.72
73734;BMP280;62039;50.000;9.064;2023-07-29T11:27:39;99558.13;;;24.75
73734;BMP280;62039;50.000;9.064;2023-07-29T11:30:09;99552.50;;;24.82
73734;BMP280;62039;50.000;9.064;2023-07-29T11:32:38;99548.22;;;24.91
73734;BMP280;62039;50.000;9.064;2023-07-29T11:35:07;99555.13;;;24.97
73734;BMP280;62039;50.000;9.064;2023-07-29T11:37:37;99563.09;;;25.02
73734;BMP280;62039;50.000;9.064;2023-07-29T11:40:05;99552.94;;;25.04
73734;BMP280;62039;50.000;9.064;2023-07-29T11:42:33;99556.66;;;25.08
73734;BMP280;62039;50.000;9.064;2023-07-29T11:45:01;99553.97;;;25.13
73734;BMP280;62039;50.000;9.064;2023-07-29T11:47:28;99548.38;;;25.20
73734;BMP280;62039;50.000;9.064;2023-07-29T11:49:58;99556.09;;;25.26
73734;BMP280;62039;50.000;9.064;2023-07-29T11:52:27;99539.22;;;25.31
73734;BMP280;62039;50.000;9.064;2023-07-29T11:54:57;99529.81;;;25.38
73734;BMP280;62039;50.000;9.064;2023-07-29T11:57:24;99527.09;;;25.43
73734;BMP280;62039;50.000;9.064;2023-07-29T11:59:51;99521.44;;;25.50
73734;BMP280;62039;50.000;9.064;2023-07-29T12:02:20;99512.03;;;25.58
73734;BMP280;62039;50.000;9.064;2023-07-29T12:04:48;99512.50;;;25.65
73734;BMP280;62039;50.000;9.064;2023-07-29T12:07:16;99524.78;;;25.71
73734;BMP280;62039;50.000;9.064;2023-07-29T12:09:44;99520.47;;;25.70
73734;BMP280;62039;50.000;9.064;2023-07-29T12:12:14;99527.47;;;25.71
73734;BMP280;62039;50.000;9.064;2023-07-29T12:14:44;99501.53;;;25.71
73734;BMP280;62039;50.000;9.064;2023-07-29T12:17:11;99498.56;;;25.73
73734;BMP280;62039;50.000;9.064;2023-07-29T12:19:38;99499.88;;;25.75
73734;BMP280;62039;50.000;9.064;2023-07-29T12:22:07;99492.09;;;25.79
73734;BMP280;62039;50.000;9.064;2023-07-29T12:24:36;99483.50;;;25.82
73734;BMP280;62039;50.000;9.064;2023-07-29T12:27:04;99491.50;;;25.87
73734;BMP280;62039;50.000;9.064;2023-07-29T12:29:40;99485.31;;;25.92
73734;BMP280;62039;50.000;9.064;2023-07-29T12:32:08;99500.00;;;25.94
73734;BMP280;62039;50.000;9.064;2023-07-29T12:34:36;99497.03;;;25.96
73734;BMP280;62039;50.000;9.064;2023-07-29T12:37:05;99495.16;;;25.96
73734;BMP280;62039;50.000;9.064;2023-07-29T12:39:33;99499.41;;;25.97
73734;BMP280;62039;50.000;9.064;2023-07-29T12:42:01;99495.16;;;25.96
73734;BMP280;62039;50.000;9.064;2023-07-29T12:44:30;99493.28;;;25.97
73734;BMP280;62039;50.000;9.064;2023-07-29T12:47:01;99489.53;;;25.98
73734;BMP280;62039;50.000;9.064;2023-07-29T12:49:28;99497.28;;;25.99
73734;BMP280;62039;50.000;9.064;2023-07-29T12:51:55;99486.28;;;26.01
73734;BMP280;62039;50.000;9.064;2023-07-29T12:54:22;99492.13;;;26.03
73734;BMP280;62039;50.000;9.064;2023-07-29T12:56:49;99499.88;;;26.04
73734;BMP280;62039;50.000;9.064;2023-07-29T12:59:17;99500.69;;;26.05
73734;BMP280;62039;50.000;9.064;2023-07-29T13:01:44;99503.09;;;26.06
73734;BMP280;62039;50.000;9.064;2023-07-29T13:04:13;99502.81;;;26.08
73734;BMP280;62039;50.000;9.064;2023-07-29T13:06:40;99504.09;;;26.10
73734;BMP280;62039;50.000;9.064;2023-07-29T13:09:07;99498.19;;;26.13
73734;BMP280;62039;50.000;9.064;2023-07-29T13:11:34;99492.25;;;26.16
73734;BMP280;62039;50.000;9.064;2023-07-29T13:14:01;99492.50;;;26.20
73734;BMP280;62039;50.000;9.064;2023-07-29T13:16:28;99503.47;;;26.24
73734;BMP280;62039;50.000;9.064;2023-07-29T13:18:56;99496.75;;;26.26
73734;BMP280;62039;50.000;9.064;2023-07-29T13:21:28;99481.22;;;26.28
73734;BMP280;62039;50.000;9.064;2023-07-29T13:23:55;99490.53;;;26.31
73734;BMP280;62039;50.000;9.064;2023-07-29T13:26:22;99482.22;;;26.32
73734;BMP280;62039;50.000;9.064;2023-07-29T13:28:49;99491.06;;;26.33
73734;BMP280;62039;50.000;9.064;2023-07-29T13:31:16;99495.34;;;26.34
73734;BMP280;62039;50.000;9.064;2023-07-29T13:33:43;99488.91;;;26.35
73734;BMP280;62039;50.000;9.064;2023-07-29T13:36:10;99499.03;;;26.38
73734;BMP280;62039;50.000;9.064;2023-07-29T13:38:39;99493.16;;;26.36
73734;BMP280;62039;50.000;9.064;2023-07-29T13:41:06;99484.84;;;26.37
73734;BMP280;62039;50.000;9.064;2023-07-29T13:43:33;99496.88;;;26.40
73734;BMP280;62039;50.000;9.064;2023-07-29T13:46:00;99498.69;;;26.44
73734;BMP280;62039;50.000;9.064;2023-07-29T13:48:27;99498.94;;;26.48
73734;BMP280;62039;50.000;9.064;2023-07-29T13:50:54;99488.72;;;26.50
73734;BMP280;62039;50.000;9.064;2023-07-29T13:53:21;99495.66;;;26.51
73734;BMP280;62039;50.000;9.064;2023-07-29T13:55:50;99499.38;;;26.55
73734;BMP280;62039;50.000;9.064;2023-07-29T13:58:17;99498.28;;;26.56
73734;BMP280;62039;50.000;9.064;2023-07-29T14:00:44;99491.63;;;26.53
73734;BMP280;62039;50.000;9.064;2023-07-29T14:03:11;99486.84;;;26.50
73734;BMP280;62039;50.000;9.064;2023-07-29T14:05:38;99484.75;;;26.47
73734;BMP280;62039;50.000;9.064;2023-07-29T14:08:05;99481.28;;;26.47
73734;BMP280;62039;50.000;9.064;2023-07-29T14:10:32;99486.63;;;26.47
73734;BMP280;62039;50.000;9.064;2023-07-29T14:13:02;99492.78;;;26.47
73734;BMP280;62039;50.000;9.064;2023-07-29T14:15:29;99501.88;;;26.46